Time;durP1;ratioP1;P1;durP2;ratioP2;P2;SDS_P1;SDS_P2;PMS_P1;PMS_P2;Temp;Humidity;BMP_temperature;BMP_pressure;BME280_temperature;BME280_humidity;BME280_pressure;Samples;Min_cycle;Max_cycle;Signal;HPM_P1;HPM_P2
2022/08/30 00:01:26;;;;;;;0.10;0.10;;;15.20;99.90;;;;;;4994250;28;20128;-82
2022/08/30 00:03:57;;;;;;;0.32;0.20;;;15.20;99.90;;;;;;5013251;28;20145;-82
2022/08/30 00:06:25;;;;;;;0.10;0.10;;;15.10;99.90;;;;;;5046260;28;20050;-82
2022/08/30 00:08:52;;;;;;;0.20;0.13;;;15.10;99.90;;;;;;5009975;28;20085;-82
2022/08/30 00:11:24;;;;;;;0.00;0.00;;;15.00;99.90;;;;;;4994669;28;20054;-82
2022/08/30 00:13:52;;;;;;;0.10;0.10;;;15.00;99.90;;;;;;5026087;28;20516;-82
2022/08/30 00:16:21;;;;;;;0.20;0.20;;;15.00;99.90;;;;;;4994239;28;20085;-82
2022/08/30 00:18:48;;;;;;;0.20;0.20;;;14.90;99.90;;;;;;5010384;28;20041;-82
2022/08/30 00:21:14;;;;;;;0.47;0.35;;;14.90;99.90;;;;;;5010386;28;20488;-81
2022/08/30 00:23:41;;;;;;;0.55;0.20;;;14.90;99.90;;;;;;4993942;28;20034;-82
2022/08/30 00:26:08;;;;;;;0.10;0.10;;;14.90;99.90;;;;;;4978659;28;20038;-82
2022/08/30 00:28:36;;;;;;;0.10;0.10;;;14.90;99.90;;;;;;4978611;28;20511;-82
2022/08/30 00:31:03;;;;;;;0.38;0.22;;;14.90;99.90;;;;;;5010585;28;20042;-83
2022/08/30 00:33:30;;;;;;;0.10;0.10;;;14.90;99.90;;;;;;4978478;28;20077;-83
2022/08/30 00:35:56;;;;;;;0.17;0.10;;;14.80;99.90;;;;;;5025924;28;20531;-82
2022/08/30 00:38:23;;;;;;;0.13;0.13;;;14.80;99.90;;;;;;4994350;28;20149;-82
2022/08/30 00:40:50;;;;;;;0.65;0.22;;;14.80;99.90;;;;;;4993714;28;20042;-82
2022/08/30 00:43:22;;;;;;;0.22;0.20;;;14.80;99.90;;;;;;4994477;28;20038;-83
2022/08/30 00:45:49;;;;;;;0.30;0.25;;;14.80;99.90;;;;;;5026458;28;20431;-82
2022/08/30 00:48:16;;;;;;;0.25;0.25;;;14.70;99.90;;;;;;5010074;28;20078;-82
2022/08/30 00:51:03;;;;;;;0.50;0.40;;;14.70;99.90;;;;;;5008090;28;20046;-82
2022/08/30 00:53:35;;;;;;;0.15;0.15;;;14.70;99.90;;;;;;5030281;28;20046;-82
2022/08/30 00:56:03;;;;;;;0.38;0.35;;;14.60;99.90;;;;;;5029844;28;20034;-82
2022/08/30 00:58:35;;;;;;;0.47;0.20;;;14.50;99.90;;;;;;4981687;28;20038;-82
2022/08/30 01:01:03;;;;;;;0.20;0.20;;;14.50;99.90;;;;;;5022833;28;20415;-82
2022/08/30 01:03:31;;;;;;;0.20;0.20;;;14.50;99.90;;;;;;5013559;28;20046;-82
2022/08/30 01:05:59;;;;;;;0.10;0.10;;;14.40;99.90;;;;;;5013562;28;20455;-83
2022/08/30 01:08:26;;;;;;;0.30;0.28;;;14.40;99.90;;;;;;5013607;28;20443;-82
2022/08/30 01:10:55;;;;;;;0.15;0.15;;;14.30;99.90;;;;;;5013142;28;20042;-82
2022/08/30 01:13:24;;;;;;;0.15;0.15;;;14.30;99.90;;;;;;5013462;28;20042;-82
2022/08/30 01:15:51;;;;;;;0.20;0.10;;;14.20;99.90;;;;;;5029378;28;20046;-82
2022/08/30 01:18:18;;;;;;;0.20;0.20;;;14.20;99.90;;;;;;5013319;28;20042;-83
2022/08/30 01:20:51;;;;;;;0.30;0.20;;;14.10;99.90;;;;;;5013449;28;20047;-82
2022/08/30 01:23:20;;;;;;;0.13;0.10;;;14.10;99.90;;;;;;5013734;28;20403;-82
2022/08/30 01:25:49;;;;;;;0.32;0.30;;;14.10;99.90;;;;;;5013023;28;20402;-82
2022/08/30 01:28:25;;;;;;;0.20;0.20;;;14.10;99.90;;;;;;5029720;28;20042;-82
2022/08/30 01:30:52;;;;;;;0.20;0.20;;;14.00;99.90;;;;;;5029270;28;20070;-82
2022/08/30 01:33:20;;;;;;;0.20;0.20;;;14.00;99.90;;;;;;5013240;28;20470;-82
2022/08/30 01:35:53;;;;;;;0.22;0.20;;;13.90;99.90;;;;;;5029071;28;20042;-82
2022/08/30 01:38:23;;;;;;;0.32;0.32;;;13.90;99.90;;;;;;5013295;28;20491;-83
2022/08/30 01:41:15;;;;;;;0.45;0.45;;;13.90;99.90;;;;;;5028991;28;20125;-83
2022/08/30 01:43:43;;;;;;;0.10;0.10;;;13.90;99.90;;;;;;5028808;28;20519;-83
2022/08/30 01:46:11;;;;;;;0.15;0.15;;;13.80;99.90;;;;;;4986912;28;20046;-82
2022/08/30 01:48:39;;;;;;;0.28;0.20;;;13.80;99.90;;;;;;5032156;28;20045;-83
2022/08/30 01:51:10;;;;;;;0.28;0.25;;;13.80;99.90;;;;;;5016465;28;20537;-83
2022/08/30 01:53:39;;;;;;;0.22;0.22;;;13.70;99.90;;;;;;5033751;28;20046;-83
2022/08/30 01:56:06;;;;;;;0.82;0.47;;;13.70;99.90;;;;;;5015754;28;20045;-83
2022/08/30 01:58:37;;;;;;;0.17;0.10;;;13.70;99.90;;;;;;5015932;28;20042;-83
2022/08/30 02:01:06;;;;;;;0.22;0.13;;;13.70;99.90;;;;;;5031167;28;20052;-83
2022/08/30 02:03:34;;;;;;;0.15;0.15;;;13.60;99.90;;;;;;5031755;28;20054;-83
2022/08/30 02:06:06;;;;;;;0.40;0.40;;;13.60;99.90;;;;;;5016089;28;20046;-83
2022/08/30 02:08:34;;;;;;;0.28;0.13;;;13.60;99.90;;;;;;5016778;28;20042;-82
2022/08/30 02:11:00;;;;;;;0.20;0.20;;;13.60;99.90;;;;;;5032066;28;20048;-83
2022/08/30 02:13:29;;;;;;;0.38;0.25;;;13.60;99.90;;;;;;5012294;28;20038;-84
2022/08/30 02:15:56;;;;;;;0.65;0.30;;;13.60;99.90;;;;;;5012235;28;20049;-82
2022/08/30 02:18:24;;;;;;;0.10;0.10;;;13.60;99.90;;;;;;5012386;28;20038;-83
2022/08/30 02:20:51;;;;;;;0.20;0.20;;;13.60;99.90;;;;;;5011809;28;20038;-83
2022/08/30 02:23:18;;;;;;;0.15;0.13;;;13.60;99.90;;;;;;5012525;28;20089;-83
2022/08/30 02:25:45;;;;;;;0.15;0.15;;;13.60;99.90;;;;;;5012108;28;20499;-83
2022/08/30 02:28:14;;;;;;;0.22;0.17;;;13.60;99.90;;;;;;5012209;28;20040;-83
2022/08/30 02:30:41;;;;;;;0.10;0.10;;;13.60;99.90;;;;;;5012096;28;20105;-82
2022/08/30 02:33:08;;;;;;;0.52;0.20;;;13.70;99.90;;;;;;4995802;28;20038;-82
2022/08/30 02:35:35;;;;;;;0.10;0.10;;;13.70;99.90;;;;;;5008888;28;20042;-83
2022/08/30 02:38:02;;;;;;;0.10;0.10;;;13.70;99.90;;;;;;5011599;28;20046;-84
2022/08/30 02:40:28;;;;;;;0.10;0.10;;;13.80;99.90;;;;;;4995845;28;20145;-83
2022/08/30 02:42:55;;;;;;;0.22;0.20;;;13.80;99.90;;;;;;4995537;28;20121;-82
2022/08/30 02:45:23;;;;;;;0.20;0.20;;;13.80;99.90;;;;;;4995857;28;20026;-83
2022/08/30 02:47:50;;;;;;;0.35;0.22;;;13.80;99.90;;;;;;5011426;28;20042;-83
2022/08/30 02:50:17;;;;;;;0.15;0.10;;;13.90;99.90;;;;;;4995846;28;20077;-82
2022/08/30 02:52:44;;;;;;;0.70;0.17;;;13.90;99.90;;;;;;4995281;28;20464;-83
2022/08/30 02:55:10;;;;;;;0.25;0.25;;;13.90;99.90;;;;;;4997041;28;20077;-83
2022/08/30 02:57:37;;;;;;;0.20;0.20;;;13.90;99.90;;;;;;5015066;28;20511;-83
2022/08/30 03:00:07;;;;;;;0.40;0.40;;;13.90;99.90;;;;;;4998923;28;20049;-83
2022/08/30 03:02:34;;;;;;;0.30;0.30;;;14.00;99.90;;;;;;5046996;28;20077;-83
2022/08/30 03:05:02;;;;;;;0.20;0.20;;;14.00;99.90;;;;;;5014436;28;20077;-83
2022/08/30 03:07:28;;;;;;;0.28;0.28;;;14.00;99.90;;;;;;4998497;28;20105;-82
2022/08/30 03:09:55;;;;;;;0.15;0.15;;;14.00;99.90;;;;;;4998763;28;20104;-83
2022/08/30 03:12:22;;;;;;;0.20;0.20;;;14.00;99.90;;;;;;4998056;28;20125;-83
2022/08/30 03:14:48;;;;;;;0.20;0.20;;;14.00;99.90;;;;;;4982857;28;20111;-83
2022/08/30 03:17:15;;;;;;;0.13;0.13;;;14.00;99.90;;;;;;4994961;28;20052;-83
2022/08/30 03:19:43;;;;;;;0.30;0.30;;;14.00;99.90;;;;;;4995557;28;20030;-83
2022/08/30 03:22:11;;;;;;;0.45;0.20;;;14.00;99.90;;;;;;5010946;28;20042;-83
2022/08/30 03:24:39;;;;;;;0.15;0.15;;;13.90;99.90;;;;;;5011070;28;20042;-84
2022/08/30 03:27:06;;;;;;;0.20;0.10;;;13.90;99.90;;;;;;4978982;28;20073;-83
2022/08/30 03:29:33;;;;;;;0.93;0.38;;;13.90;99.90;;;;;;4994860;28;20088;-83
2022/08/30 03:32:00;;;;;;;0.20;0.20;;;13.90;99.90;;;;;;4978592;28;20082;-83
2022/08/30 03:34:27;;;;;;;0.30;0.30;;;13.90;99.90;;;;;;4978851;28;20041;-83
2022/08/30 03:36:55;;;;;;;0.22;0.20;;;13.80;99.90;;;;;;4978807;28;20046;-83
2022/08/30 03:39:23;;;;;;;0.10;0.10;;;13.80;99.90;;;;;;4979031;28;20048;-83
2022/08/30 03:41:50;;;;;;;0.20;0.20;;;13.80;99.90;;;;;;4978699;28;20046;-83
2022/08/30 03:44:17;;;;;;;0.47;0.28;;;13.80;99.90;;;;;;4978541;28;20096;-83
2022/08/30 03:46:44;;;;;;;0.17;0.15;;;13.80;99.90;;;;;;4972198;28;20073;-83
2022/08/30 03:49:11;;;;;;;0.45;0.28;;;13.70;99.90;;;;;;4997923;28;20049;-83
2022/08/30 03:51:37;;;;;;;0.45;0.30;;;13.70;99.90;;;;;;4998065;28;20046;-83
2022/08/30 03:54:04;;;;;;;0.20;0.20;;;13.70;99.90;;;;;;5030192;28;20042;-83
2022/08/30 03:56:31;;;;;;;0.20;0.20;;;13.70;99.90;;;;;;4997733;28;20521;-84
2022/08/30 03:58:57;;;;;;;0.35;0.30;;;13.70;99.90;;;;;;5013885;28;20034;-83
2022/08/30 04:01:24;;;;;;;0.17;0.17;;;13.60;99.90;;;;;;4997576;28;20038;-83
2022/08/30 04:03:51;;;;;;;0.25;0.22;;;13.60;99.90;;;;;;5005096;28;20084;-83
2022/08/30 04:06:18;;;;;;;0.20;0.20;;;13.60;99.90;;;;;;5013462;28;20044;-83
2022/08/30 04:08:45;;;;;;;0.20;0.20;;;13.60;99.90;;;;;;5026466;28;20034;-82
2022/08/30 04:11:13;;;;;;;0.10;0.10;;;13.50;99.90;;;;;;5025563;28;20045;-83
2022/08/30 04:13:40;;;;;;;0.20;0.20;;;13.50;99.90;;;;;;5001752;28;20050;-83
2022/08/30 04:16:07;;;;;;;0.15;0.15;;;13.50;99.90;;;;;;4997554;28;20396;-83
2022/08/30 04:18:35;;;;;;;0.30;0.30;;;13.40;99.90;;;;;;4997613;28;20502;-82
2022/08/30 04:21:03;;;;;;;0.20;0.20;;;13.40;99.90;;;;;;5026656;28;20041;-83
2022/08/30 04:23:29;;;;;;;0.57;0.25;;;13.40;99.90;;;;;;5026866;28;20038;-83
2022/08/30 04:25:56;;;;;;;0.10;0.10;;;13.30;99.90;;;;;;5010379;28;20125;-83
2022/08/30 04:28:23;;;;;;;0.30;0.25;;;13.30;99.90;;;;;;5019310;28;20045;-82
2022/08/30 04:30:49;;;;;;;0.10;0.10;;;13.20;99.90;;;;;;5003690;28;20506;-82
2022/08/30 04:33:16;;;;;;;0.20;0.20;;;13.20;99.90;;;;;;5035892;28;20434;-83
2022/08/30 04:35:46;;;;;;;0.10;0.10;;;13.20;99.90;;;;;;5003794;28;20124;-82
2022/08/30 04:38:13;;;;;;;0.15;0.15;;;13.10;99.90;;;;;;5019675;28;20033;-83
2022/08/30 04:40:48;;;;;;;0.32;0.20;;;13.10;99.90;;;;;;5036243;28;20033;-83
2022/08/30 04:43:15;;;;;;;0.30;0.30;;;13.10;99.90;;;;;;5032100;28;20045;-83
2022/08/30 04:45:42;;;;;;;0.10;0.10;;;13.00;99.90;;;;;;5032529;28;20050;-82
2022/08/30 04:48:09;;;;;;;0.52;0.20;;;13.00;99.90;;;;;;5050325;28;20045;-82
2022/08/30 04:50:36;;;;;;;0.20;0.20;;;12.90;99.90;;;;;;5035932;28;20542;-83
2022/08/30 04:53:04;;;;;;;0.25;0.22;;;12.90;99.90;;;;;;5036595;28;20046;-83
2022/08/30 04:55:30;;;;;;;0.20;0.20;;;12.90;99.90;;;;;;5035978;28;20081;-83
2022/08/30 04:57:57;;;;;;;0.10;0.10;;;12.90;99.90;;;;;;5019618;28;20073;-83
2022/08/30 05:00:24;;;;;;;0.20;0.20;;;12.90;99.90;;;;;;5019457;28;20037;-82
2022/08/30 05:02:51;;;;;;;0.10;0.10;;;12.80;99.90;;;;;;5003533;28;20089;-83
2022/08/30 05:08:03;;;;;;;1.20;0.47;;;12.80;99.90;;;;;;5021838;28;20406;-83
2022/08/30 05:10:29;;;;;;;0.13;0.13;;;12.80;99.90;;;;;;4987423;28;20046;-83
2022/08/30 05:12:56;;;;;;;0.25;0.25;;;12.80;99.90;;;;;;4987660;28;20049;-82
2022/08/30 05:15:23;;;;;;;0.20;0.20;;;12.80;99.90;;;;;;4987208;28;20077;-82
2022/08/30 05:17:50;;;;;;;0.20;0.20;;;12.70;99.90;;;;;;4987814;28;20897;-83
2022/08/30 05:20:17;;;;;;;0.20;0.20;;;12.80;99.90;;;;;;5003346;28;20041;-83
2022/08/30 05:22:49;;;;;;;0.13;0.13;;;12.80;99.90;;;;;;5003572;28;20078;-83
2022/08/30 05:25:19;;;;;;;0.28;0.15;;;12.70;99.90;;;;;;5015865;28;20080;-83
2022/08/30 05:27:46;;;;;;;0.10;0.10;;;12.80;99.90;;;;;;5000003;28;20038;-82
2022/08/30 05:30:14;;;;;;;0.43;0.40;;;12.80;99.90;;;;;;5000108;28;20070;-83
2022/08/30 05:32:41;;;;;;;0.20;0.20;;;12.80;99.90;;;;;;4999638;28;20053;-83
2022/08/30 05:35:10;;;;;;;0.30;0.25;;;12.70;99.90;;;;;;4999246;28;20038;-82
2022/08/30 05:37:37;;;;;;;0.13;0.13;;;12.80;99.90;;;;;;4996412;28;20053;-82
2022/08/30 05:40:06;;;;;;;0.15;0.10;;;12.80;99.90;;;;;;4996707;28;20042;-83
2022/08/30 05:42:34;;;;;;;0.22;0.20;;;12.80;99.90;;;;;;5004852;28;20184;-83
2022/08/30 05:45:02;;;;;;;0.20;0.20;;;12.80;99.90;;;;;;5000113;28;20123;-82
2022/08/30 05:47:29;;;;;;;0.08;0.08;;;12.80;99.90;;;;;;5000022;28;20324;-83
2022/08/30 05:49:56;;;;;;;0.17;0.17;;;12.90;99.90;;;;;;5000345;28;20053;-83
2022/08/30 05:52:22;;;;;;;0.20;0.20;;;12.90;99.90;;;;;;4983839;28;20495;-83
2022/08/30 05:54:57;;;;;;;0.20;0.20;;;13.00;99.90;;;;;;5015869;28;20549;-82
2022/08/30 05:57:25;;;;;;;0.35;0.30;;;13.10;99.90;;;;;;5015435;28;20046;-83
2022/08/30 05:59:52;;;;;;;0.10;0.10;;;13.20;99.90;;;;;;4983973;28;20030;-82
2022/08/30 06:02:18;;;;;;;0.20;0.20;;;13.20;99.90;;;;;;5016033;28;20108;-83
2022/08/30 06:04:45;;;;;;;0.35;0.25;;;13.30;99.90;;;;;;5014327;28;20525;-82
2022/08/30 06:07:12;;;;;;;0.30;0.28;;;13.30;99.90;;;;;;5016127;28;20439;-82
2022/08/30 06:09:38;;;;;;;0.03;0.03;;;13.40;99.90;;;;;;5015302;28;20100;-83
2022/08/30 06:12:05;;;;;;;0.45;0.35;;;13.40;99.90;;;;;;4999312;28;20037;-83
2022/08/30 06:14:33;;;;;;;0.38;0.20;;;13.50;99.90;;;;;;4999590;28;20042;-83
2022/08/30 06:16:59;;;;;;;0.10;0.10;;;13.50;99.90;;;;;;5015545;28;20099;-83
2022/08/30 06:19:26;;;;;;;0.30;0.30;;;13.60;99.90;;;;;;5018322;28;20470;-83
2022/08/30 06:21:52;;;;;;;0.10;0.10;;;13.60;99.90;;;;;;5002751;28;20038;-83
2022/08/30 06:24:19;;;;;;;0.40;0.30;;;13.70;99.90;;;;;;5015698;28;20046;-83
2022/08/30 06:26:46;;;;;;;0.20;0.20;;;13.80;99.90;;;;;;5009900;28;20418;-82
2022/08/30 06:29:16;;;;;;;0.30;0.15;;;13.90;99.90;;;;;;5031615;28;20079;-83
2022/08/30 06:31:43;;;;;;;0.10;0.10;;;14.00;99.90;;;;;;5030123;28;20038;-83
2022/08/30 06:34:10;;;;;;;0.47;0.22;;;14.10;99.90;;;;;;5031687;28;20148;-83
2022/08/30 06:36:37;;;;;;;0.47;0.20;;;14.20;99.90;;;;;;5031121;28;20582;-83
2022/08/30 06:39:05;;;;;;;0.20;0.20;;;14.30;99.90;;;;;;5015172;28;20034;-83
2022/08/30 06:41:34;;;;;;;0.20;0.20;;;14.40;99.90;;;;;;5014871;28;20407;-83
2022/08/30 06:44:02;;;;;;;0.13;0.13;;;14.50;99.90;;;;;;5014857;28;20034;-81
2022/08/30 06:46:31;;;;;;;0.00;0.00;;;14.60;99.90;;;;;;5047029;28;20120;-83
2022/08/30 06:48:59;;;;;;;0.20;0.20;;;14.70;99.90;;;;;;5030970;28;20415;-84
2022/08/30 06:51:31;;;;;;;0.10;0.10;;;14.80;99.90;;;;;;5014894;28;20045;-84
2022/08/30 06:53:59;;;;;;;0.08;0.00;;;14.90;99.90;;;;;;5031280;28;20121;-83
2022/08/30 06:56:26;;;;;;;0.17;0.17;;;15.10;99.90;;;;;;5030917;28;20053;-83
2022/08/30 06:58:53;;;;;;;0.00;0.00;;;15.20;99.90;;;;;;5014375;28;20034;-83
2022/08/30 07:01:25;;;;;;;0.10;0.10;;;15.20;99.90;;;;;;5030522;28;20045;-84
2022/08/30 07:03:52;;;;;;;0.30;0.20;;;15.30;99.90;;;;;;5024152;28;20050;-84
2022/08/30 07:06:19;;;;;;;0.10;0.10;;;15.30;99.90;;;;;;5024748;28;20045;-83
2022/08/30 07:08:46;;;;;;;0.10;0.10;;;15.50;99.90;;;;;;5014717;28;20048;-83
2022/08/30 07:11:13;;;;;;;0.10;0.10;;;15.60;99.90;;;;;;5031268;28;20041;-87
2022/08/30 07:13:40;;;;;;;0.00;0.00;;;15.70;99.90;;;;;;5014887;28;20056;-86
2022/08/30 07:16:12;;;;;;;0.05;0.05;;;15.90;99.90;;;;;;4998149;28;20591;-82
2022/08/30 07:18:53;;;;;;;0.45;0.10;;;16.00;99.90;;;;;;5026993;28;20038;-83
2022/08/30 07:21:24;;;;;;;0.15;0.15;;;16.20;99.90;;;;;;5037817;28;20041;-87
2022/08/30 07:23:51;;;;;;;0.68;0.28;;;16.30;99.90;;;;;;5030797;28;20044;-83
2022/08/30 07:26:23;;;;;;;0.00;0.00;;;16.40;99.90;;;;;;5010954;28;20438;-85
2022/08/30 07:28:50;;;;;;;0.10;0.10;;;16.50;99.90;;;;;;5043960;28;20049;-82
2022/08/30 07:31:18;;;;;;;0.00;0.00;;;16.60;99.90;;;;;;5026912;28;20038;-86
2022/08/30 07:33:46;;;;;;;0.30;0.10;;;16.70;99.90;;;;;;5026635;28;20055;-82
2022/08/30 07:36:14;;;;;;;0.10;0.10;;;16.80;99.90;;;;;;4988276;28;20442;-86
2022/08/30 07:38:40;;;;;;;0.05;0.05;;;16.90;99.90;;;;;;5029948;28;20026;-85
2022/08/30 07:41:07;;;;;;;0.00;0.00;;;17.10;99.90;;;;;;5030528;28;20033;-83
2022/08/30 07:43:35;;;;;;;0.10;0.10;;;17.10;99.90;;;;;;5030026;28;20042;-86
2022/08/30 07:46:06;;;;;;;0.00;0.00;;;17.30;99.90;;;;;;5030299;28;20049;-83
2022/08/30 07:48:33;;;;;;;0.30;0.17;;;17.40;99.90;;;;;;5029108;28;20041;-86
2022/08/30 07:51:01;;;;;;;0.13;0.10;;;17.50;99.90;;;;;;5010498;28;20046;-82
2022/08/30 07:53:27;;;;;;;0.00;0.00;;;17.70;99.90;;;;;;5026489;28;20080;-82
2022/08/30 07:55:54;;;;;;;0.57;0.10;;;17.70;99.90;;;;;;4997248;28;20467;-87
2022/08/30 07:58:21;;;;;;;0.52;0.17;;;17.80;99.90;;;;;;5029686;28;20125;-81
2022/08/30 08:00:47;;;;;;;0.57;0.20;;;17.90;99.90;;;;;;4997174;28;20038;-87
2022/08/30 08:03:14;;;;;;;0.73;0.20;;;18.00;99.90;;;;;;5029748;28;20062;-82
2022/08/30 08:05:43;;;;;;;0.15;0.15;;;18.00;99.90;;;;;;4997382;28;20034;-84
2022/08/30 08:08:11;;;;;;;0.32;0.20;;;18.10;99.90;;;;;;5046243;28;20495;-83
2022/08/30 08:10:39;;;;;;;0.00;0.00;;;18.20;99.90;;;;;;5046539;28;20049;-85
2022/08/30 08:13:06;;;;;;;0.10;0.10;;;18.30;99.90;;;;;;5046451;28;20076;-85
2022/08/30 08:15:33;;;;;;;0.75;0.28;;;18.40;99.90;;;;;;5012343;28;20074;-83
2022/08/30 08:18:00;;;;;;;0.00;0.00;;;18.40;99.90;;;;;;5045849;28;20080;-82
2022/08/30 08:20:27;;;;;;;0.05;0.05;;;18.50;99.90;;;;;;4997524;28;20045;-86
2022/08/30 08:22:54;;;;;;;0.00;0.00;;;18.50;99.90;;;;;;5012913;28;20499;-81
2022/08/30 08:25:20;;;;;;;0.10;0.10;;;18.70;99.90;;;;;;5012911;28;20045;-84
2022/08/30 08:27:49;;;;;;;0.00;0.00;;;18.80;99.90;;;;;;5013741;28;20480;-80
2022/08/30 08:30:21;;;;;;;0.17;0.10;;;18.90;99.90;;;;;;5026220;28;20492;-85
2022/08/30 08:32:48;;;;;;;0.10;0.10;;;19.00;99.90;;;;;;5039534;28;20108;-80
2022/08/30 08:35:16;;;;;;;0.10;0.10;;;19.10;99.90;;;;;;5045988;28;20034;-81
2022/08/30 08:37:43;;;;;;;0.13;0.10;;;19.10;99.90;;;;;;5029067;28;20049;-80
2022/08/30 08:40:17;;;;;;;0.13;0.08;;;19.20;99.90;;;;;;5026260;28;20651;-82
2022/08/30 08:42:52;;;;;;;0.05;0.05;;;19.30;99.90;;;;;;5033205;28;20030;-82
2022/08/30 08:45:33;;;;;;;0.35;0.10;;;19.30;99.90;;;;;;5029303;28;20550;-82
2022/08/30 08:48:27;;;;;;;0.00;0.00;;;19.50;99.90;;;;;;5026817;28;20881;-81
2022/08/30 08:53:42;;;;;;;;;;;19.60;99.90;;;;;;5036359;28;20049;-81
2022/08/30 08:56:13;;;;;;;0.28;0.10;;;19.70;99.90;;;;;;5029388;28;19925;-81
2022/08/30 08:58:45;;;;;;;0.20;0.10;;;19.70;99.90;;;;;;5025927;28;20052;-82
2022/08/30 09:01:14;;;;;;;0.20;0.20;;;19.70;99.90;;;;;;5042461;28;20037;-81
2022/08/30 09:03:41;;;;;;;0.20;0.10;;;19.70;99.90;;;;;;5009576;28;20050;-81
2022/08/30 09:06:18;;;;;;;0.00;0.00;;;19.70;99.90;;;;;;5022264;28;20042;-80
2022/08/30 09:08:45;;;;;;;0.10;0.10;;;19.60;99.90;;;;;;5029358;28;20033;-84
2022/08/30 09:11:22;;;;;;;0.22;0.22;;;19.60;99.90;;;;;;5031805;28;20372;-83
2022/08/30 09:13:49;;;;;;;0.10;0.10;;;19.40;99.90;;;;;;5032988;28;20052;-82
2022/08/30 09:16:45;;;;;;;0.28;0.13;;;19.30;99.90;;;;;;5016539;28;20046;-82
2022/08/30 09:19:29;;;;;;;0.00;0.00;;;19.10;99.90;;;;;;5046589;28;20096;-83
2022/08/30 09:21:58;;;;;;;0.10;0.10;;;19.10;99.90;;;;;;5048190;28;20099;-81
2022/08/30 09:24:25;;;;;;;0.05;0.00;;;19.20;99.90;;;;;;5032728;28;20069;-82
2022/08/30 09:26:52;;;;;;;0.08;0.08;;;19.30;99.90;;;;;;5044856;28;20798;-81
2022/08/30 09:29:19;;;;;;;0.65;0.30;;;19.40;99.90;;;;;;5020692;28;20042;-80
2022/08/30 09:31:50;;;;;;;0.40;0.25;;;19.50;99.90;;;;;;5010629;28;20107;-80
2022/08/30 09:34:19;;;;;;;0.38;0.05;;;19.60;99.90;;;;;;5032137;28;20037;-80
2022/08/30 09:36:49;;;;;;;0.00;0.00;;;19.70;99.90;;;;;;5013192;28;20043;-80
2022/08/30 09:39:40;;;;;;;0.05;0.05;;;19.80;99.90;;;;;;5028807;28;20046;-82
2022/08/30 09:42:17;;;;;;;0.08;0.08;;;19.90;99.90;;;;;;5023571;28;20038;-81
2022/08/30 09:44:44;;;;;;;0.22;0.10;;;19.80;99.90;;;;;;5046358;28;20038;-80
2022/08/30 09:47:39;;;;;;;0.10;0.10;;;19.80;99.90;;;;;;4995444;28;20452;-86
2022/08/30 09:50:09;;;;;;;0.20;0.15;;;20.00;99.90;;;;;;5039552;28;20048;-80
2022/08/30 09:53:24;;;;;;;0.20;0.20;;;20.20;99.90;;;;;;5048277;28;20046;-85
2022/08/30 09:55:59;;;;;;;0.10;0.10;;;20.30;99.90;;;;;;5023493;28;20130;-81
2022/08/30 09:58:47;;;;;;;0.40;0.10;;;20.60;99.90;;;;;;5045860;28;20045;-80
2022/08/30 10:01:36;;;;;;;0.00;0.00;;;20.80;99.90;;;;;;5028312;28;20056;-80
2022/08/30 10:04:17;;;;;;;0.60;0.20;;;20.90;99.90;;;;;;5013090;28;20060;-83
2022/08/30 10:06:54;;;;;;;0.10;0.10;;;21.10;99.90;;;;;;5047936;28;20116;-81
2022/08/30 10:09:33;;;;;;;0.05;0.05;;;21.10;99.90;;;;;;5031319;28;20494;-81
2022/08/30 10:12:21;;;;;;;0.43;0.20;;;21.00;99.90;;;;;;5016066;28;20393;-81
2022/08/30 10:15:10;;;;;;;0.47;0.22;;;21.10;99.90;;;;;;5027838;28;20092;-81
2022/08/30 10:18:04;;;;;;;0.00;0.00;;;21.30;99.90;;;;;;5020691;28;20049;-81
2022/08/30 10:20:41;;;;;;;0.40;0.22;;;21.50;99.90;;;;;;5031349;28;20046;-82
2022/08/30 10:23:13;;;;;;;0.40;0.20;;;21.50;99.90;;;;;;5026478;28;20403;-83
2022/08/30 10:25:42;;;;;;;0.25;0.20;;;21.50;99.90;;;;;;5027533;28;20181;-86
2022/08/30 10:28:17;;;;;;;0.30;0.20;;;21.60;99.90;;;;;;5039286;28;20042;-80
2022/08/30 10:30:52;;;;;;;0.28;0.20;;;21.60;99.90;;;;;;5044797;28;20042;-81
2022/08/30 10:33:43;;;;;;;0.10;0.10;;;21.50;99.90;;;;;;5039309;28;20057;-87
2022/08/30 10:36:12;;;;;;;0.25;0.20;;;21.40;99.90;;;;;;5047026;28;20128;-82
2022/08/30 10:38:46;;;;;;;0.20;0.10;;;21.50;99.90;;;;;;5027139;28;20774;-81
2022/08/30 10:41:22;;;;;;;0.08;0.08;;;21.60;99.90;;;;;;5027685;28;20038;-86
2022/08/30 10:43:53;;;;;;;0.32;0.20;;;21.60;99.90;;;;;;5011309;28;20065;-83
2022/08/30 10:46:32;;;;;;;0.20;0.20;;;21.50;99.90;;;;;;5011277;28;20141;-84
2022/08/30 10:49:01;;;;;;;0.03;0.03;;;21.30;99.90;;;;;;5025435;28;20049;-83
2022/08/30 10:51:49;;;;;;;0.15;0.10;;;21.20;99.90;;;;;;5045944;28;20072;-85
2022/08/30 10:54:22;;;;;;;0.32;0.20;;;21.00;99.90;;;;;;5028143;28;20392;-84
2022/08/30 10:56:51;;;;;;;0.10;0.10;;;21.00;99.90;;;;;;5025915;28;20092;-81
2022/08/30 10:59:19;;;;;;;0.10;0.10;;;21.30;99.90;;;;;;5035857;28;20467;-83
2022/08/30 11:02:03;;;;;;;0.20;0.10;;;21.40;99.90;;;;;;5035377;28;20038;-83
2022/08/30 11:04:49;;;;;;;0.10;0.10;;;21.50;99.90;;;;;;5026291;28;20129;-81
2022/08/30 11:07:45;;;;;;;0.60;0.38;;;21.40;99.90;;;;;;5007328;28;20054;-81
2022/08/30 11:10:42;;;;;;;0.05;0.05;;;21.20;99.90;;;;;;5012660;28;20042;-84
2022/08/30 11:13:13;;;;;;;0.70;0.30;;;21.10;99.90;;;;;;5013705;28;20046;-84
2022/08/30 11:16:06;;;;;;;0.10;0.10;;;21.30;99.90;;;;;;5013584;28;20088;-81
2022/08/30 11:18:45;;;;;;;0.00;0.00;;;21.50;99.90;;;;;;5030226;28;20041;-83
2022/08/30 11:21:24;;;;;;;0.15;0.15;;;21.70;99.90;;;;;;5013762;28;20030;-83
2022/08/30 11:24:00;;;;;;;0.10;0.10;;;22.00;99.90;;;;;;5009104;28;20314;-84
2022/08/30 11:27:00;;;;;;;0.10;0.10;;;22.20;99.90;;;;;;5000895;28;20034;-81
2022/08/30 11:29:41;;;;;;;0.13;0.13;;;22.20;99.90;;;;;;4990564;28;20050;-81
2022/08/30 11:32:16;;;;;;;0.20;0.10;;;22.40;99.90;;;;;;5013466;28;20080;-81
2022/08/30 11:34:45;;;;;;;0.00;0.00;;;22.40;99.90;;;;;;5014295;28;20050;-80
2022/08/30 11:37:39;;;;;;;0.47;0.28;;;22.50;99.90;;;;;;5009953;28;20050;-83
2022/08/30 11:40:25;;;;;;;0.05;0.05;;;22.50;99.90;;;;;;5028018;28;20038;-81
2022/08/30 11:42:53;;;;;;;0.10;0.10;;;22.70;99.90;;;;;;5029565;28;20048;-80
2022/08/30 11:45:23;;;;;;;0.10;0.10;;;22.70;99.90;;;;;;5008611;28;20042;-81
2022/08/30 11:48:00;;;;;;;0.20;0.13;;;22.90;99.90;;;;;;4999431;28;20053;-87
2022/08/30 11:50:45;;;;;;;0.03;0.03;;;23.00;99.90;;;;;;4994301;28;20097;-85
2022/08/30 11:53:30;;;;;;;0.13;0.10;;;23.10;99.90;;;;;;4994018;28;20038;-84
2022/08/30 11:56:16;;;;;;;;;;;23.20;99.30;;;;;;5009038;28;20042;-80
2022/08/30 11:58:48;;;;;;;0.08;0.08;;;23.30;99.90;;;;;;5009908;28;19960;-80
2022/08/30 12:01:21;;;;;;;0.00;0.00;;;23.30;99.50;;;;;;5013367;28;20561;-82
2022/08/30 12:04:03;;;;;;;0.00;0.00;;;23.40;99.90;;;;;;5035413;28;20085;-81
2022/08/30 12:06:39;;;;;;;0.10;0.10;;;23.30;99.90;;;;;;5025467;28;20099;-85
2022/08/30 12:09:31;;;;;;;0.20;0.13;;;23.20;99.80;;;;;;5042094;28;20104;-82
2022/08/30 12:12:31;;;;;;;0.00;0.00;;;23.10;99.90;;;;;;5015279;28;20042;-87
2022/08/30 12:14:59;;;;;;;0.15;0.15;;;22.80;99.80;;;;;;5043393;28;20056;-86
2022/08/30 12:20:45;;;;;;;0.20;0.10;;;22.50;99.90;;;;;;5029482;28;20037;-86
2022/08/30 12:23:33;;;;;;;0.10;0.10;;;22.70;99.90;;;;;;5029122;28;20045;-81
2022/08/30 12:26:14;;;;;;;0.17;0.17;;;22.80;99.90;;;;;;5029870;28;20076;-86
2022/08/30 12:28:42;;;;;;;0.25;0.20;;;22.90;99.60;;;;;;5028361;28;20041;-86
2022/08/30 12:31:21;;;;;;;0.20;0.20;;;22.90;99.90;;;;;;5012725;28;20500;-86
2022/08/30 12:33:52;;;;;;;0.17;0.13;;;22.70;99.90;;;;;;5029531;28;20104;-81
2022/08/30 12:36:38;;;;;;;0.10;0.10;;;22.50;99.90;;;;;;5028728;28;20042;-85
2022/08/30 12:39:04;;;;;;;;;;;22.30;99.90;;;;;;5028725;28;20029;-81
2022/08/30 12:41:31;;;;;;;0.50;0.20;;;22.00;99.90;;;;;;5045819;28;20393;-81
2022/08/30 12:43:59;;;;;;;0.20;0.20;;;21.80;99.90;;;;;;5012759;28;20045;-86
2022/08/30 12:46:26;;;;;;;0.30;0.30;;;21.90;99.90;;;;;;5016434;28;20038;-82
2022/08/30 12:48:53;;;;;;;0.20;0.20;;;22.10;99.90;;;;;;5039252;28;20048;-86
2022/08/30 12:51:36;;;;;;;0.20;0.20;;;22.10;99.90;;;;;;4997399;28;20132;-82
2022/08/30 12:54:26;;;;;;;0.10;0.10;;;22.20;99.90;;;;;;5048520;28;20042;-80
2022/08/30 12:57:06;;;;;;;0.10;0.10;;;22.10;99.90;;;;;;5033314;28;20038;-81
2022/08/30 12:59:47;;;;;;;0.13;0.10;;;22.10;99.90;;;;;;5013723;28;20037;-81
2022/08/30 13:02:23;;;;;;;0.10;0.10;;;21.90;99.90;;;;;;5014066;28;20038;-81
2022/08/30 13:04:52;;;;;;;0.00;0.00;;;21.80;99.90;;;;;;5032754;28;20081;-81
2022/08/30 13:07:32;;;;;;;0.00;0.00;;;21.60;99.90;;;;;;5032032;28;20049;-85
2022/08/30 13:10:07;;;;;;;0.10;0.10;;;21.70;99.90;;;;;;5037825;28;20046;-86
2022/08/30 13:12:37;;;;;;;0.17;0.13;;;21.90;99.90;;;;;;5029571;28;20144;-85
2022/08/30 13:15:17;;;;;;;0.10;0.10;;;22.00;99.90;;;;;;4997570;28;20043;-85
2022/08/30 13:17:45;;;;;;;0.63;0.20;;;21.90;99.90;;;;;;5012842;28;20522;-86